sensor_id;sensor_type;location;lat;lon;timestamp;pressure;altitude;pressure_sealevel;temperature;humidity
3780;BME280;1905;52.482;9.802;2022-12-07T00:01:18;100906.16;;;3.94;94.74
3780;BME280;1905;52.482;9.802;2022-12-07T00:03:56;100903.63;;;3.91;94.88
3780;BME280;1905;52.482;9.802;2022-12-07T00:06:37;100906.13;;;3.97;94.97
3780;BME280;1905;52.482;9.802;2022-12-07T00:09:20;100894.81;;;3.98;94.73
3780;BME280;1905;52.482;9.802;2022-12-07T00:11:55;100894.72;;;4.03;94.75
3780;BME280;1905;52.482;9.802;2022-12-07T00:14:27;100891.28;;;4.01;94.94
3780;BME280;1905;52.482;9.802;2022-12-07T00:16:57;100883.38;;;4.05;94.15
3780;BME280;1905;52.482;9.802;2022-12-07T00:19:30;100876.31;;;4.10;94.57
3780;BME280;1905;52.482;9.802;2022-12-07T00:22:01;100877.19;;;4.11;94.89
3780;BME280;1905;52.482;9.802;2022-12-07T00:24:42;100874.56;;;4.12;95.18
3780;BME280;1905;52.482;9.802;2022-12-07T00:27:17;100881.50;;;4.13;95.08
3780;BME280;1905;52.482;9.802;2022-12-07T00:29:51;100863.19;;;4.16;95.61
3780;BME280;1905;52.482;9.802;2022-12-07T00:32:21;100865.75;;;4.19;95.28
3780;BME280;1905;52.482;9.802;2022-12-07T00:35:02;100864.88;;;4.20;94.60
3780;BME280;1905;52.482;9.802;2022-12-07T00:37:33;100862.19;;;4.27;94.64
3780;BME280;1905;52.482;9.802;2022-12-07T00:40:15;100858.66;;;4.28;95.73
3780;BME280;1905;52.482;9.802;2022-12-07T00:42:53;100856.88;;;4.31;95.14
3780;BME280;1905;52.482;9.802;2022-12-07T00:45:24;100860.31;;;4.35;94.76
3780;BME280;1905;52.482;9.802;2022-12-07T00:48:06;100860.22;;;4.38;95.85
3780;BME280;1905;52.482;9.802;2022-12-07T00:50:44;100858.47;;;4.40;95.97
3780;BME280;1905;52.482;9.802;2022-12-07T00:53:22;100849.78;;;4.38;94.70
3780;BME280;1905;52.482;9.802;2022-12-07T00:56:06;100847.13;;;4.41;95.02
3780;BME280;1905;52.482;9.802;2022-12-07T00:58:41;100845.38;;;4.43;95.01
3780;BME280;1905;52.482;9.802;2022-12-07T01:01:15;100834.88;;;4.44;95.15
3780;BME280;1905;52.482;9.802;2022-12-07T01:03:55;100840.97;;;4.45;94.65
3780;BME280;1905;52.482;9.802;2022-12-07T01:06:38;100838.25;;;4.51;95.02
3780;BME280;1905;52.482;9.802;2022-12-07T01:09:23;100841.72;;;4.51;95.84
3780;BME280;1905;52.482;9.802;2022-12-07T01:12:06;100842.53;;;4.55;95.40
3780;BME280;1905;52.482;9.802;2022-12-07T01:14:46;100843.50;;;4.51;95.77
3780;BME280;1905;52.482;9.802;2022-12-07T01:17:33;100842.53;;;4.55;95.38
3780;BME280;1905;52.482;9.802;2022-12-07T01:20:08;100840.75;;;4.57;96.24
3780;BME280;1905;52.482;9.802;2022-12-07T01:22:37;100844.19;;;4.62;96.17
3780;BME280;1905;52.482;9.802;2022-12-07T01:25:06;100835.47;;;4.60;95.83
3780;BME280;1905;52.482;9.802;2022-12-07T01:27:34;100835.38;;;4.66;95.15
3780;BME280;1905;52.482;9.802;2022-12-07T01:30:06;100841.47;;;4.65;95.89
3780;BME280;1905;52.482;9.802;2022-12-07T01:32:33;100826.66;;;4.67;95.42
3780;BME280;1905;52.482;9.802;2022-12-07T01:35:01;100825.72;;;4.69;94.92
3780;BME280;1905;52.482;9.802;2022-12-07T01:37:34;100823.06;;;4.72;95.76
3780;BME280;1905;52.482;9.802;2022-12-07T01:40:02;100824.81;;;4.72;95.18
3780;BME280;1905;52.482;9.802;2022-12-07T01:42:30;100820.44;;;4.72;94.98
3780;BME280;1905;52.482;9.802;2022-12-07T01:48:14;100816.06;;;4.73;95.81
3780;BME280;1905;52.482;9.802;2022-12-07T01:50:45;100810.78;;;4.76;95.14
3780;BME280;1905;52.482;9.802;2022-12-07T01:53:15;100812.50;;;4.77;95.75
3780;BME280;1905;52.482;9.802;2022-12-07T01:55:46;100809.84;;;4.80;95.60
3780;BME280;1905;52.482;9.802;2022-12-07T01:58:16;100805.50;;;4.79;95.14
3780;BME280;1905;52.482;9.802;2022-12-07T02:00:43;100811.50;;;4.84;95.16
3780;BME280;1905;52.482;9.802;2022-12-07T02:03:16;100807.22;;;4.80;94.76
3780;BME280;1905;52.482;9.802;2022-12-07T02:05:46;100809.00;;;4.78;94.02
3780;BME280;1905;52.482;9.802;2022-12-07T02:08:16;100810.72;;;4.79;93.61
3780;BME280;1905;52.482;9.802;2022-12-07T02:10:45;100813.38;;;4.77;94.15
3780;BME280;1905;52.482;9.802;2022-12-07T02:13:15;100809.06;;;4.75;94.04
3780;BME280;1905;52.482;9.802;2022-12-07T02:16:03;100802.91;;;4.76;93.68
3780;BME280;1905;52.482;9.802;2022-12-07T02:18:45;100807.28;;;4.77;93.38
3780;BME280;1905;52.482;9.802;2022-12-07T02:21:20;100796.88;;;4.74;94.51
3780;BME280;1905;52.482;9.802;2022-12-07T02:24:15;100800.41;;;4.71;94.56
3780;BME280;1905;52.482;9.802;2022-12-07T02:29:57;100796.91;;;4.71;94.22
3780;BME280;1905;52.482;9.802;2022-12-07T02:32:31;100798.69;;;4.69;94.33
3780;BME280;1905;52.482;9.802;2022-12-07T02:35:05;100795.22;;;4.70;93.33
3780;BME280;1905;52.482;9.802;2022-12-07T02:37:37;100796.09;;;4.67;94.29
3780;BME280;1905;52.482;9.802;2022-12-07T02:40:11;100788.25;;;4.67;93.64
3780;BME280;1905;52.482;9.802;2022-12-07T02:42:45;100792.66;;;4.65;93.67
3780;BME280;1905;52.482;9.802;2022-12-07T02:45:18;100786.56;;;4.65;93.28
3780;BME280;1905;52.482;9.802;2022-12-07T02:47:51;100788.28;;;4.66;93.06
3780;BME280;1905;52.482;9.802;2022-12-07T02:50:20;100795.22;;;4.68;93.35
3780;BME280;1905;52.482;9.802;2022-12-07T02:52:48;100798.75;;;4.66;92.80
3780;BME280;1905;52.482;9.802;2022-12-07T02:55:19;100797.09;;;4.62;92.80
3780;BME280;1905;52.482;9.802;2022-12-07T02:57:56;100793.56;;;4.63;93.08
3780;BME280;1905;52.482;9.802;2022-12-07T03:00:31;100793.69;;;4.57;93.45
3780;BME280;1905;52.482;9.802;2022-12-07T03:03:06;100785.00;;;4.55;92.75
3780;BME280;1905;52.482;9.802;2022-12-07T03:05:53;100784.09;;;4.57;93.04
3780;BME280;1905;52.482;9.802;2022-12-07T03:08:31;100779.78;;;4.56;92.42
3780;BME280;1905;52.482;9.802;2022-12-07T03:11:03;100781.53;;;4.54;92.38
3780;BME280;1905;52.482;9.802;2022-12-07T03:13:38;100781.56;;;4.53;92.24
3780;BME280;1905;52.482;9.802;2022-12-07T03:16:14;100782.44;;;4.52;91.71
3780;BME280;1905;52.482;9.802;2022-12-07T03:18:46;100776.34;;;4.53;92.49
3780;BME280;1905;52.482;9.802;2022-12-07T03:21:17;100768.53;;;4.50;92.72
3780;BME280;1905;52.482;9.802;2022-12-07T03:23:50;100774.66;;;4.49;92.75
3780;BME280;1905;52.482;9.802;2022-12-07T03:26:19;100767.72;;;4.48;93.38
3780;BME280;1905;52.482;9.802;2022-12-07T03:28:53;100767.66;;;4.51;93.29
3780;BME280;1905;52.482;9.802;2022-12-07T03:31:26;100764.19;;;4.49;93.17
3780;BME280;1905;52.482;9.802;2022-12-07T03:33:59;100767.66;;;4.51;93.73
3780;BME280;1905;52.482;9.802;2022-12-07T03:36:32;100765.06;;;4.49;92.71
3780;BME280;1905;52.482;9.802;2022-12-07T03:39:07;100768.50;;;4.53;92.81
3780;BME280;1905;52.482;9.802;2022-12-07T03:41:37;100761.56;;;4.49;94.13
3780;BME280;1905;52.482;9.802;2022-12-07T03:44:11;100760.78;;;4.45;93.20
3780;BME280;1905;52.482;9.802;2022-12-07T03:46:44;100765.91;;;4.50;94.09
3780;BME280;1905;52.482;9.802;2022-12-07T03:49:18;100764.19;;;4.49;94.01
3780;BME280;1905;52.482;9.802;2022-12-07T03:51:53;100771.16;;;4.50;93.98
3780;BME280;1905;52.482;9.802;2022-12-07T03:54:26;100769.41;;;4.49;93.94
3780;BME280;1905;52.482;9.802;2022-12-07T03:56:57;100770.22;;;4.52;93.67
3780;BME280;1905;52.482;9.802;2022-12-07T03:59:26;100783.34;;;4.51;93.71
3780;BME280;1905;52.482;9.802;2022-12-07T04:01:57;100782.38;;;4.55;92.53
3780;BME280;1905;52.482;9.802;2022-12-07T04:04:28;100780.69;;;4.54;92.51
3780;BME280;1905;52.482;9.802;2022-12-07T04:06:56;100785.06;;;4.52;92.72
3780;BME280;1905;52.482;9.802;2022-12-07T04:09:24;100786.78;;;4.53;92.13
3780;BME280;1905;52.482;9.802;2022-12-07T04:11:52;100781.63;;;4.50;92.46
3780;BME280;1905;52.482;9.802;2022-12-07T04:14:20;100786.84;;;4.50;91.72
3780;BME280;1905;52.482;9.802;2022-12-07T04:16:49;100785.09;;;4.49;91.95
3780;BME280;1905;52.482;9.802;2022-12-07T04:19:20;100790.38;;;4.47;92.11
3780;BME280;1905;52.482;9.802;2022-12-07T04:21:48;100781.56;;;4.51;92.09
3780;BME280;1905;52.482;9.802;2022-12-07T04:24:16;100790.38;;;4.46;91.99
3780;BME280;1905;52.482;9.802;2022-12-07T04:26:44;100784.31;;;4.45;92.08
3780;BME280;1905;52.482;9.802;2022-12-07T04:29:13;100785.97;;;4.49;92.31
3780;BME280;1905;52.482;9.802;2022-12-07T04:31:41;100787.81;;;4.44;91.85
3780;BME280;1905;52.482;9.802;2022-12-07T04:34:10;100787.81;;;4.44;93.30
3780;BME280;1905;52.482;9.802;2022-12-07T04:36:39;100780.94;;;4.40;92.36
3780;BME280;1905;52.482;9.802;2022-12-07T04:39:08;100787.84;;;4.41;92.23
3780;BME280;1905;52.482;9.802;2022-12-07T04:41:36;100786.16;;;4.39;91.72
3780;BME280;1905;52.482;9.802;2022-12-07T04:44:04;100779.13;;;4.42;92.45
3780;BME280;1905;52.482;9.802;2022-12-07T04:46:33;100772.16;;;4.43;92.33
3780;BME280;1905;52.482;9.802;2022-12-07T04:49:01;100775.69;;;4.40;91.87
3780;BME280;1905;52.482;9.802;2022-12-07T04:51:29;100771.25;;;4.44;91.89
3780;BME280;1905;52.482;9.802;2022-12-07T04:53:58;100772.06;;;4.47;91.89
3780;BME280;1905;52.482;9.802;2022-12-07T04:56:27;100774.69;;;4.46;92.08
3780;BME280;1905;52.482;9.802;2022-12-07T04:58:55;100765.06;;;4.49;92.46
3780;BME280;1905;52.482;9.802;2022-12-07T05:01:24;100772.88;;;4.51;92.46
3780;BME280;1905;52.482;9.802;2022-12-07T05:03:52;100776.38;;;4.50;91.43
3780;BME280;1905;52.482;9.802;2022-12-07T05:06:20;100771.16;;;4.50;92.34
3780;BME280;1905;52.482;9.802;2022-12-07T05:08:47;100783.34;;;4.49;92.89
3780;BME280;1905;52.482;9.802;2022-12-07T05:11:17;100775.56;;;4.46;92.06
3780;BME280;1905;52.482;9.802;2022-12-07T05:13:58;100779.88;;;4.49;92.39
3780;BME280;1905;52.482;9.802;2022-12-07T05:16:27;100776.38;;;4.50;91.48
3780;BME280;1905;52.482;9.802;2022-12-07T05:18:54;100779.94;;;4.46;92.05
3780;BME280;1905;52.482;9.802;2022-12-07T05:21:22;100783.34;;;4.49;91.94
3780;BME280;1905;52.482;9.802;2022-12-07T05:23:50;100772.88;;;4.51;92.44
3780;BME280;1905;52.482;9.802;2022-12-07T05:26:20;100777.22;;;4.52;92.03
3780;BME280;1905;52.482;9.802;2022-12-07T05:28:50;100778.13;;;4.51;91.58
3780;BME280;1905;52.482;9.802;2022-12-07T05:31:18;100773.69;;;4.54;91.73
3780;BME280;1905;52.482;9.802;2022-12-07T05:33:46;100769.25;;;4.58;91.41
3780;BME280;1905;52.482;9.802;2022-12-07T05:36:14;100765.00;;;4.54;91.66
3780;BME280;1905;52.482;9.802;2022-12-07T05:38:42;100764.91;;;4.57;91.70
3780;BME280;1905;52.482;9.802;2022-12-07T05:41:13;100758.84;;;4.55;91.66
3780;BME280;1905;52.482;9.802;2022-12-07T05:43:57;100771.94;;;4.55;91.47
3780;BME280;1905;52.482;9.802;2022-12-07T05:46:24;100777.16;;;4.56;91.58
3780;BME280;1905;52.482;9.802;2022-12-07T05:48:52;100771.09;;;4.53;91.75
3780;BME280;1905;52.482;9.802;2022-12-07T05:51:20;100776.34;;;4.53;90.98
3780;BME280;1905;52.482;9.802;2022-12-07T05:53:48;100779.78;;;4.55;91.30
3780;BME280;1905;52.482;9.802;2022-12-07T05:56:15;100772.84;;;4.54;91.32
3780;BME280;1905;52.482;9.802;2022-12-07T05:58:43;100772.84;;;4.54;91.26
3780;BME280;1905;52.482;9.802;2022-12-07T06:01:30;100772.88;;;4.51;91.52
3780;BME280;1905;52.482;9.802;2022-12-07T06:03:58;100770.22;;;4.52;91.57
3780;BME280;1905;52.482;9.802;2022-12-07T06:06:25;100761.56;;;4.50;91.65
3780;BME280;1905;52.482;9.802;2022-12-07T06:08:53;100756.34;;;4.50;91.50
3780;BME280;1905;52.482;9.802;2022-12-07T06:11:21;100758.91;;;4.52;90.96
3780;BME280;1905;52.482;9.802;2022-12-07T06:14:06;100749.34;;;4.51;91.24
3780;BME280;1905;52.482;9.802;2022-12-07T06:16:35;100755.47;;;4.50;90.92
3780;BME280;1905;52.482;9.802;2022-12-07T06:19:03;100751.06;;;4.53;91.02
3780;BME280;1905;52.482;9.802;2022-12-07T06:21:31;100762.38;;;4.54;91.18
3780;BME280;1905;52.482;9.802;2022-12-07T06:23:58;100764.13;;;4.52;90.81
3780;BME280;1905;52.482;9.802;2022-12-07T06:26:26;100756.34;;;4.50;91.17
3780;BME280;1905;52.482;9.802;2022-12-07T06:28:54;100759.81;;;4.51;91.03
3780;BME280;1905;52.482;9.802;2022-12-07T06:31:21;100768.50;;;4.53;90.39
3780;BME280;1905;52.482;9.802;2022-12-07T06:33:50;100765.00;;;4.54;90.39
3780;BME280;1905;52.482;9.802;2022-12-07T06:36:18;100771.13;;;4.51;90.38
3780;BME280;1905;52.482;9.802;2022-12-07T06:38:53;100770.28;;;4.51;90.36
3780;BME280;1905;52.482;9.802;2022-12-07T06:41:21;100771.16;;;4.50;91.20
3780;BME280;1905;52.482;9.802;2022-12-07T06:43:49;100769.38;;;4.52;90.76
3780;BME280;1905;52.482;9.802;2022-12-07T06:46:22;100769.31;;;4.55;90.03
3780;BME280;1905;52.482;9.802;2022-12-07T06:48:51;100759.81;;;4.49;90.47
3780;BME280;1905;52.482;9.802;2022-12-07T06:51:19;100764.19;;;4.49;90.92
3780;BME280;1905;52.482;9.802;2022-12-07T06:53:47;100774.69;;;4.46;89.98
3780;BME280;1905;52.482;9.802;2022-12-07T06:56:14;100764.25;;;4.46;90.70
3780;BME280;1905;52.482;9.802;2022-12-07T06:58:42;100766.84;;;4.46;90.63
3780;BME280;1905;52.482;9.802;2022-12-07T07:01:12;100771.25;;;4.45;90.41
3780;BME280;1905;52.482;9.802;2022-12-07T07:03:40;100779.94;;;4.46;90.71
3780;BME280;1905;52.482;9.802;2022-12-07T07:06:10;100782.53;;;4.46;90.12
3780;BME280;1905;52.482;9.802;2022-12-07T07:08:38;100786.06;;;4.45;90.63
3780;BME280;1905;52.482;9.802;2022-12-07T07:11:07;100790.47;;;4.43;89.69
3780;BME280;1905;52.482;9.802;2022-12-07T07:13:36;100788.72;;;4.42;90.08
3780;BME280;1905;52.482;9.802;2022-12-07T07:16:04;100787.00;;;4.41;90.12
3780;BME280;1905;52.482;9.802;2022-12-07T07:18:32;100785.28;;;4.38;90.07
3780;BME280;1905;52.482;9.802;2022-12-07T07:20:59;100787.13;;;4.33;90.41
3780;BME280;1905;52.482;9.802;2022-12-07T07:23:29;100792.34;;;4.35;90.47
3780;BME280;1905;52.482;9.802;2022-12-07T07:25:57;100789.75;;;4.33;90.10
3780;BME280;1905;52.482;9.802;2022-12-07T07:28:24;100794.97;;;4.35;90.33
3780;BME280;1905;52.482;9.802;2022-12-07T07:30:52;100792.38;;;4.32;89.95
3780;BME280;1905;52.482;9.802;2022-12-07T07:33:20;100792.38;;;4.32;90.35
3780;BME280;1905;52.482;9.802;2022-12-07T07:35:48;100790.69;;;4.28;90.77
3780;BME280;1905;52.482;9.802;2022-12-07T07:38:16;100800.28;;;4.29;90.17
3780;BME280;1905;52.482;9.802;2022-12-07T07:40:45;100804.69;;;4.27;90.19
3780;BME280;1905;52.482;9.802;2022-12-07T07:43:12;100797.66;;;4.29;90.19
3780;BME280;1905;52.482;9.802;2022-12-07T07:45:40;100798.53;;;4.28;90.49
3780;BME280;1905;52.482;9.802;2022-12-07T07:48:08;100801.19;;;4.25;90.54
3780;BME280;1905;52.482;9.802;2022-12-07T07:50:35;100811.66;;;4.25;90.47
3780;BME280;1905;52.482;9.802;2022-12-07T07:53:03;100804.72;;;4.24;90.37
3780;BME280;1905;52.482;9.802;2022-12-07T07:55:31;100813.34;;;4.29;90.27
3780;BME280;1905;52.482;9.802;2022-12-07T07:58:00;100808.06;;;4.32;90.27
3780;BME280;1905;52.482;9.802;2022-12-07T08:00:28;100799.50;;;4.24;90.90
3780;BME280;1905;52.482;9.802;2022-12-07T08:02:56;100806.41;;;4.26;90.08
3780;BME280;1905;52.482;9.802;2022-12-07T08:05:23;100811.66;;;4.26;90.77
3780;BME280;1905;52.482;9.802;2022-12-07T08:07:51;100812.53;;;4.25;91.06
3780;BME280;1905;52.482;9.802;2022-12-07T08:10:19;100814.22;;;4.29;90.35
3780;BME280;1905;52.482;9.802;2022-12-07T08:12:47;100816.88;;;4.25;91.00
3780;BME280;1905;52.482;9.802;2022-12-07T08:15:30;100809.94;;;4.24;91.42
3780;BME280;1905;52.482;9.802;2022-12-07T08:17:58;100816.84;;;4.28;90.65
3780;BME280;1905;52.482;9.802;2022-12-07T08:20:26;100808.16;;;4.26;91.00
3780;BME280;1905;52.482;9.802;2022-12-07T08:22:54;100809.03;;;4.26;91.77
3780;BME280;1905;52.482;9.802;2022-12-07T08:25:22;100807.28;;;4.27;91.22
3780;BME280;1905;52.482;9.802;2022-12-07T08:27:51;100816.84;;;4.28;90.69
3780;BME280;1905;52.482;9.802;2022-12-07T08:30:20;100815.97;;;4.29;90.51
3780;BME280;1905;52.482;9.802;2022-12-07T08:49:37;100806.41;;;4.26;92.04
3780;BME280;1905;52.482;9.802;2022-12-07T08:52:05;100810.69;;;4.30;91.82
3780;BME280;1905;52.482;9.802;2022-12-07T08:54:34;100819.38;;;4.34;91.38
3780;BME280;1905;52.482;9.802;2022-12-07T08:57:03;100814.88;;;4.42;91.33
3780;BME280;1905;52.482;9.802;2022-12-07T08:59:50;100818.34;;;4.41;91.50
3780;BME280;1905;52.482;9.802;2022-12-07T09:02:18;100819.22;;;4.41;91.94
3780;BME280;1905;52.482;9.802;2022-12-07T09:04:47;100818.31;;;4.44;91.88
3780;BME280;1905;52.482;9.802;2022-12-07T09:07:15;100813.09;;;4.44;91.71
3780;BME280;1905;52.482;9.802;2022-12-07T09:09:42;100816.53;;;4.46;91.72
3780;BME280;1905;52.482;9.802;2022-12-07T09:12:10;100811.28;;;4.46;91.15
3780;BME280;1905;52.482;9.802;2022-12-07T09:14:38;100817.38;;;4.48;91.34
3780;BME280;1905;52.482;9.802;2022-12-07T09:17:07;100816.47;;;4.49;91.46
3780;BME280;1905;52.482;9.802;2022-12-07T09:19:35;100812.94;;;4.53;91.01
3780;BME280;1905;52.482;9.802;2022-12-07T09:22:04;100813.81;;;4.52;91.39
3780;BME280;1905;52.482;9.802;2022-12-07T09:24:32;100816.38;;;4.55;91.19
3780;BME280;1905;52.482;9.802;2022-12-07T09:27:02;100816.38;;;4.56;91.51
3780;BME280;1905;52.482;9.802;2022-12-07T09:29:33;100811.09;;;4.58;91.13
3780;BME280;1905;52.482;9.802;2022-12-07T09:32:03;100816.34;;;4.58;91.58
3780;BME280;1905;52.482;9.802;2022-12-07T09:34:37;100819.81;;;4.57;91.69
3780;BME280;1905;52.482;9.802;2022-12-07T09:37:06;100813.75;;;4.56;91.02
3780;BME280;1905;52.482;9.802;2022-12-07T09:39:39;100811.09;;;4.58;91.38
3780;BME280;1905;52.482;9.802;2022-12-07T09:42:26;100817.16;;;4.60;91.21
3780;BME280;1905;52.482;9.802;2022-12-07T09:44:55;100818.03;;;4.62;91.44
3780;BME280;1905;52.482;9.802;2022-12-07T09:47:25;100817.19;;;4.58;91.63
3780;BME280;1905;52.482;9.802;2022-12-07T09:49:53;100816.25;;;4.64;90.72
3780;BME280;1905;52.482;9.802;2022-12-07T09:52:27;100814.50;;;4.64;91.00
3780;BME280;1905;52.482;9.802;2022-12-07T09:55:09;100806.59;;;4.66;90.83
3780;BME280;1905;52.482;9.802;2022-12-07T09:57:38;100804.81;;;4.68;91.21
3780;BME280;1905;52.482;9.802;2022-12-07T10:00:12;100801.28;;;4.72;90.92
3780;BME280;1905;52.482;9.802;2022-12-07T10:09:58;100797.72;;;4.74;91.41
3780;BME280;1905;52.482;9.802;2022-12-07T10:12:26;100800.31;;;4.76;91.15
3780;BME280;1905;52.482;9.802;2022-12-07T10:14:56;100801.19;;;4.76;91.25
3780;BME280;1905;52.482;9.802;2022-12-07T10:17:36;100786.28;;;4.80;91.66
3780;BME280;1905;52.482;9.802;2022-12-07T10:20:21;100801.88;;;4.86;91.68
3780;BME280;1905;52.482;9.802;2022-12-07T10:22:57;100792.34;;;4.84;91.26
3780;BME280;1905;52.482;9.802;2022-12-07T10:25:29;100789.63;;;4.88;90.70
3780;BME280;1905;52.482;9.802;2022-12-07T10:28:11;100787.03;;;4.87;90.90
3780;BME280;1905;52.482;9.802;2022-12-07T10:31:00;100794.81;;;4.91;90.68
3780;BME280;1905;52.482;9.802;2022-12-07T10:38:45;100798.25;;;4.93;90.67
3780;BME280;1905;52.482;9.802;2022-12-07T10:41:14;100794.63;;;5.00;90.72
3780;BME280;1905;52.482;9.802;2022-12-07T10:43:50;100798.09;;;5.02;91.03
3780;BME280;1905;52.482;9.802;2022-12-07T10:46:39;100790.94;;;5.10;90.40
3780;BME280;1905;52.482;9.802;2022-12-07T10:52:34;100782.34;;;5.05;90.39
3780;BME280;1905;52.482;9.802;2022-12-07T10:55:16;100773.56;;;5.06;90.53
3780;BME280;1905;52.482;9.802;2022-12-07T10:57:58;100780.44;;;5.12;90.59
3780;BME280;1905;52.482;9.802;2022-12-07T11:00:36;100773.41;;;5.15;90.40
3780;BME280;1905;52.482;9.802;2022-12-07T11:03:23;100776.88;;;5.16;89.76
3780;BME280;1905;52.482;9.802;2022-12-07T11:05:57;100780.44;;;5.13;90.66
3780;BME280;1905;52.482;9.802;2022-12-07T11:08:39;100776.78;;;5.20;89.93
3780;BME280;1905;52.482;9.802;2022-12-07T11:11:13;100777.75;;;5.16;90.27
3780;BME280;1905;52.482;9.802;2022-12-07T11:13:48;100772.41;;;5.19;90.01
3780;BME280;1905;52.482;9.802;2022-12-07T11:16:24;100767.13;;;5.24;89.57
3780;BME280;1905;52.482;9.802;2022-12-07T11:19:05;100775.84;;;5.24;89.59
3780;BME280;1905;52.482;9.802;2022-12-07T11:21:44;100762.66;;;5.27;89.91
3780;BME280;1905;52.482;9.802;2022-12-07T11:24:16;100761.94;;;5.21;89.68
3780;BME280;1905;52.482;9.802;2022-12-07T11:26:59;100759.22;;;5.25;89.60
3780;BME280;1905;52.482;9.802;2022-12-07T11:29:47;100760.94;;;5.26;89.28
3780;BME280;1905;52.482;9.802;2022-12-07T11:32:21;100760.91;;;5.28;89.04
3780;BME280;1905;52.482;9.802;2022-12-07T11:34:59;100765.38;;;5.23;89.56
3780;BME280;1905;52.482;9.802;2022-12-07T11:37:33;100767.06;;;5.25;89.00
3780;BME280;1905;52.482;9.802;2022-12-07T11:40:11;100763.63;;;5.23;89.43
3780;BME280;1905;52.482;9.802;2022-12-07T11:42:46;100769.75;;;5.22;89.72
3780;BME280;1905;52.482;9.802;2022-12-07T11:45:22;100766.19;;;5.26;89.48
3780;BME280;1905;52.482;9.802;2022-12-07T11:47:54;100750.47;;;5.26;89.37
3780;BME280;1905;52.482;9.802;2022-12-07T11:50:26;100761.66;;;5.33;88.85
3780;BME280;1905;52.482;9.802;2022-12-07T11:52:58;100757.41;;;5.27;88.88
3780;BME280;1905;52.482;9.802;2022-12-07T11:55:30;100759.03;;;5.34;89.25
3780;BME280;1905;52.482;9.802;2022-12-07T11:58:05;100757.22;;;5.36;89.40
3780;BME280;1905;52.482;9.802;2022-12-07T12:00:41;100762.47;;;5.36;89.25
3780;BME280;1905;52.482;9.802;2022-12-07T12:03:12;100752.06;;;5.33;89.46
3780;BME280;1905;52.482;9.802;2022-12-07T12:05:42;100754.56;;;5.39;89.49
3780;BME280;1905;52.482;9.802;2022-12-07T12:08:14;100749.28;;;5.41;89.50
3780;BME280;1905;52.482;9.802;2022-12-07T12:11:12;100737.97;;;5.40;89.69
3780;BME280;1905;52.482;9.802;2022-12-07T12:13:59;100736.13;;;5.44;89.42
3780;BME280;1905;52.482;9.802;2022-12-07T12:17:25;100725.56;;;5.49;89.10
3780;BME280;1905;52.482;9.802;2022-12-07T12:20:03;100727.38;;;5.43;89.42
3780;BME280;1905;52.482;9.802;2022-12-07T12:22:35;100729.19;;;5.43;89.00
3780;BME280;1905;52.482;9.802;2022-12-07T12:25:06;100726.56;;;5.43;89.05
3780;BME280;1905;52.482;9.802;2022-12-07T12:27:36;100718.53;;;5.51;89.44
3780;BME280;1905;52.482;9.802;2022-12-07T12:30:23;100715.84;;;5.52;89.48
3780;BME280;1905;52.482;9.802;2022-12-07T12:33:01;100713.22;;;5.54;89.61
3780;BME280;1905;52.482;9.802;2022-12-07T12:35:32;100714.03;;;5.56;89.15
3780;BME280;1905;52.482;9.802;2022-12-07T12:38:31;100709.63;;;5.58;89.18
3780;BME280;1905;52.482;9.802;2022-12-07T12:41:01;100712.31;;;5.55;89.31
3780;BME280;1905;52.482;9.802;2022-12-07T12:43:49;100715.78;;;5.55;89.15
3780;BME280;1905;52.482;9.802;2022-12-07T12:46:49;100713.16;;;5.57;89.08
3780;BME280;1905;52.482;9.802;2022-12-07T12:52:56;100701.75;;;5.58;89.06
3780;BME280;1905;52.482;9.802;2022-12-07T12:58:35;100697.31;;;5.61;88.76
3780;BME280;1905;52.482;9.802;2022-12-07T13:04:24;100697.44;;;5.57;88.81
3780;BME280;1905;52.482;9.802;2022-12-07T13:06:53;100696.44;;;5.62;88.49
3780;BME280;1905;52.482;9.802;2022-12-07T13:09:24;100694.75;;;5.60;89.58
3780;BME280;1905;52.482;9.802;2022-12-07T13:11:59;100693.00;;;5.59;89.25
3780;BME280;1905;52.482;9.802;2022-12-07T13:14:57;100689.41;;;5.63;89.24
3780;BME280;1905;52.482;9.802;2022-12-07T13:18:04;100690.25;;;5.65;89.03
3780;BME280;1905;52.482;9.802;2022-12-07T13:20:49;100686.78;;;5.63;89.00
3780;BME280;1905;52.482;9.802;2022-12-07T13:23:31;100685.88;;;5.65;89.16
3780;BME280;1905;52.482;9.802;2022-12-07T13:26:17;100675.47;;;5.62;88.73
3780;BME280;1905;52.482;9.802;2022-12-07T13:28:47;100676.41;;;5.60;89.20
3780;BME280;1905;52.482;9.802;2022-12-07T13:31:32;100677.97;;;5.67;88.48
3780;BME280;1905;52.482;9.802;2022-12-07T13:34:02;100669.44;;;5.59;88.93
3780;BME280;1905;52.482;9.802;2022-12-07T13:36:32;100676.47;;;5.57;88.92
3780;BME280;1905;52.482;9.802;2022-12-07T13:39:17;100676.41;;;5.60;88.89
3780;BME280;1905;52.482;9.802;2022-12-07T13:41:51;100673.88;;;5.57;88.48
3780;BME280;1905;52.482;9.802;2022-12-07T13:44:19;100671.25;;;5.55;89.00
3780;BME280;1905;52.482;9.802;2022-12-07T13:46:52;100672.94;;;5.58;89.00
3780;BME280;1905;52.482;9.802;2022-12-07T13:49:22;100669.44;;;5.59;88.75
3780;BME280;1905;52.482;9.802;2022-12-07T13:51:51;100663.34;;;5.58;88.67
3780;BME280;1905;52.482;9.802;2022-12-07T13:54:20;100668.63;;;5.57;88.44
3780;BME280;1905;52.482;9.802;2022-12-07T13:56:51;100671.19;;;5.58;88.42
3780;BME280;1905;52.482;9.802;2022-12-07T13:59:21;100662.53;;;5.55;88.80
3780;BME280;1905;52.482;9.802;2022-12-07T14:01:50;100666.84;;;5.57;88.83
3780;BME280;1905;52.482;9.802;2022-12-07T14:04:33;100666.00;;;5.57;88.56
3780;BME280;1905;52.482;9.802;2022-12-07T14:07:19;100663.53;;;5.49;88.71
3780;BME280;1905;52.482;9.802;2022-12-07T14:09:54;100666.28;;;5.45;89.24
3780;BME280;1905;52.482;9.802;2022-12-07T14:12:25;100666.28;;;5.45;88.83
3780;BME280;1905;52.482;9.802;2022-12-07T14:14:54;100672.50;;;5.40;88.70
3780;BME280;1905;52.482;9.802;2022-12-07T14:17:24;100670.84;;;5.36;88.99
3780;BME280;1905;52.482;9.802;2022-12-07T14:19:53;100669.94;;;5.37;88.93
3780;BME280;1905;52.482;9.802;2022-12-07T14:22:30;100670.00;;;5.34;89.37
3780;BME280;1905;52.482;9.802;2022-12-07T14:25:00;100670.94;;;5.32;89.36
3780;BME280;1905;52.482;9.802;2022-12-07T14:27:33;100670.91;;;5.33;89.50
3780;BME280;1905;52.482;9.802;2022-12-07T14:30:03;100668.34;;;5.30;89.20
3780;BME280;1905;52.482;9.802;2022-12-07T14:32:34;100668.41;;;5.27;89.03
3780;BME280;1905;52.482;9.802;2022-12-07T14:35:09;100668.50;;;5.24;89.47
3780;BME280;1905;52.482;9.802;2022-12-07T14:37:39;100663.28;;;5.24;89.62
3780;BME280;1905;52.482;9.802;2022-12-07T14:40:11;100661.53;;;5.23;89.70
3780;BME280;1905;52.482;9.802;2022-12-07T14:42:41;100658.09;;;5.21;89.66